Time;durP1;ratioP1;P1;durP2;ratioP2;P2;SDS_P1;SDS_P2;PMS_P1;PMS_P2;Temp;Humidity;BMP_temperature;BMP_pressure;BME280_temperature;BME280_humidity;BME280_pressure;Samples;Min_cycle;Max_cycle;Signal;HPM_P1;HPM_P2
2022/11/17 00:00:10;;;;;;;5.43;2.70;;;;;;;;;;4898349;29;20483;-84
2022/11/17 00:02:36;;;;;;;7.35;2.95;;;;;;;;;;4908805;29;20080;-84
2022/11/17 00:05:01;;;;;;;6.45;2.90;;;;;;;;;;4899387;29;20405;-84
2022/11/17 00:07:27;;;;;;;5.93;2.97;;;;;;;;;;4896495;29;20047;-83
2022/11/17 00:09:52;;;;;;;8.52;3.15;;;;;;;;;;4911545;29;20040;-85
2022/11/17 00:15:02;;;;;;;7.03;3.47;;;;;;;;;;4915757;29;20035;-84
2022/11/17 00:17:27;;;;;;;6.90;3.40;;;;;;;;;;4895870;29;20393;-85
2022/11/17 00:22:36;;;;;;;6.10;3.42;;;;;;;;;;4909297;29;20063;-84
2022/11/17 00:25:02;;;;;;;6.82;3.30;;;;;;;;;;4895448;29;20032;-83
2022/11/17 00:27:27;;;;;;;5.47;2.90;;;;;;;;;;4909615;29;20064;-83
2022/11/17 00:29:53;;;;;;;8.05;3.08;;;;;;;;;;4904540;29;20036;-85
2022/11/17 00:35:04;;;;;;;7.05;3.10;;;;;;;;;;4912140;29;20123;-84
2022/11/17 00:37:34;;;;;;;6.53;3.17;;;;;;;;;;4912077;29;20095;-85
2022/11/17 00:40:00;;;;;;;5.57;2.70;;;;;;;;;;4912710;29;20036;-84
2022/11/17 00:42:25;;;;;;;6.68;2.78;;;;;;;;;;4897824;29;20119;-84
2022/11/17 00:44:51;;;;;;;7.97;2.88;;;;;;;;;;4910744;29;20047;-84
2022/11/17 00:47:16;;;;;;;5.53;2.70;;;;;;;;;;4918964;29;20079;-84
2022/11/17 00:49:41;;;;;;;4.25;2.38;;;;;;;;;;4910622;29;20388;-84
2022/11/17 00:52:09;;;;;;;5.38;2.50;;;;;;;;;;4919641;29;20032;-84
2022/11/17 00:54:34;;;;;;;2.95;2.17;;;;;;;;;;4911341;29;20029;-84
2022/11/17 00:57:00;;;;;;;4.68;2.70;;;;;;;;;;4909410;29;20028;-84
2022/11/17 00:59:25;;;;;;;5.95;2.50;;;;;;;;;;4910093;29;20038;-84
2022/11/17 01:01:51;;;;;;;3.90;2.45;;;;;;;;;;4892167;29;20142;-84
2022/11/17 01:04:16;;;;;;;4.43;2.53;;;;;;;;;;4911703;29;20055;-84
2022/11/17 01:06:47;;;;;;;4.75;2.65;;;;;;;;;;4907096;29;20040;-84
2022/11/17 01:09:35;;;;;;;4.65;2.90;;;;;;;;;;4896213;29;20478;-84
2022/11/17 01:12:01;;;;;;;5.07;2.60;;;;;;;;;;4870757;29;20119;-83
2022/11/17 01:14:28;;;;;;;4.35;2.60;;;;;;;;;;4911129;29;20044;-83
2022/11/17 01:16:53;;;;;;;5.55;2.47;;;;;;;;;;4905536;29;20024;-83
2022/11/17 01:19:20;;;;;;;4.07;2.33;;;;;;;;;;4889219;29;20366;-83
2022/11/17 01:21:46;;;;;;;5.47;2.45;;;;;;;;;;4916141;29;20115;-84
2022/11/17 01:24:14;;;;;;;4.35;2.35;;;;;;;;;;4899052;29;21108;-83
2022/11/17 01:26:40;;;;;;;4.47;2.72;;;;;;;;;;4912473;29;20461;-84
2022/11/17 01:29:07;;;;;;;5.00;2.60;;;;;;;;;;4907099;29;20068;-84
2022/11/17 01:31:42;;;;;;;4.40;2.22;;;;;;;;;;4912391;29;20028;-83
2022/11/17 01:34:08;;;;;;;5.13;2.50;;;;;;;;;;4909704;29;20114;-84
2022/11/17 01:39:21;;;;;;;4.70;2.03;;;;;;;;;;4905819;29;20080;-84
2022/11/17 01:41:47;;;;;;;4.97;2.38;;;;;;;;;;4907506;29;20397;-85
2022/11/17 01:44:40;;;;;;;4.10;2.10;;;;;;;;;;4908417;29;20036;-83
2022/11/17 01:47:19;;;;;;;3.45;1.83;;;;;;;;;;4896198;29;20489;-83
2022/11/17 01:49:46;;;;;;;3.95;1.70;;;;;;;;;;4891782;29;20039;-82
2022/11/17 01:52:13;;;;;;;4.57;1.75;;;;;;;;;;4909434;29;20536;-83
2022/11/17 01:54:41;;;;;;;3.45;1.90;;;;;;;;;;4905049;29;20091;-83
2022/11/17 01:57:16;;;;;;;3.00;1.70;;;;;;;;;;4896116;29;20662;-82
2022/11/17 01:59:47;;;;;;;4.00;1.80;;;;;;;;;;4910713;29;20481;-84
2022/11/17 02:02:12;;;;;;;3.95;1.73;;;;;;;;;;4908399;29;20032;-83
2022/11/17 02:04:52;;;;;;;3.08;1.80;;;;;;;;;;4910518;29;20035;-83
2022/11/17 02:07:32;;;;;;;5.15;2.08;;;;;;;;;;4913157;29;20028;-83
2022/11/17 02:09:59;;;;;;;4.57;2.03;;;;;;;;;;4907462;29;20042;-83
2022/11/17 02:12:26;;;;;;;2.88;2.03;;;;;;;;;;4905642;29;20028;-83
2022/11/17 02:14:53;;;;;;;3.33;1.88;;;;;;;;;;4908880;29;20086;-83
2022/11/17 02:17:21;;;;;;;4.63;1.80;;;;;;;;;;4910196;29;20499;-84
2022/11/17 02:20:12;;;;;;;6.93;1.98;;;;;;;;;;4907437;29;20067;-82
2022/11/17 02:22:56;;;;;;;2.67;1.55;;;;;;;;;;4904513;29;20036;-83
2022/11/17 02:25:27;;;;;;;4.00;1.80;;;;;;;;;;4907680;29;20036;-83
2022/11/17 02:28:10;;;;;;;3.50;1.60;;;;;;;;;;4910478;29;20032;-83
2022/11/17 02:30:47;;;;;;;3.22;1.70;;;;;;;;;;4906414;29;20087;-83
2022/11/17 02:33:29;;;;;;;4.28;1.52;;;;;;;;;;4913092;29;20115;-83
2022/11/17 02:36:09;;;;;;;4.95;1.60;;;;;;;;;;4910090;29;20164;-83
2022/11/17 02:38:41;;;;;;;2.17;1.38;;;;;;;;;;4893652;29;20048;-84
2022/11/17 02:41:08;;;;;;;2.90;1.40;;;;;;;;;;4905586;29;20057;-83
2022/11/17 02:46:30;;;;;;;3.20;1.40;;;;;;;;;;4912615;29;20079;-83
2022/11/17 02:49:00;;;;;;;3.33;1.20;;;;;;;;;;4907366;29;20033;-83
2022/11/17 02:51:26;;;;;;;3.50;1.67;;;;;;;;;;4907993;29;20114;-83
2022/11/17 02:53:54;;;;;;;3.30;1.30;;;;;;;;;;4906061;29;20554;-83
2022/11/17 02:56:20;;;;;;;3.08;1.17;;;;;;;;;;4910310;29;20020;-83
2022/11/17 02:58:49;;;;;;;2.25;1.05;;;;;;;;;;4909105;29;20031;-84
2022/11/17 03:01:20;;;;;;;1.77;1.08;;;;;;;;;;4908726;29;20119;-83
2022/11/17 03:04:27;;;;;;;2.55;1.27;;;;;;;;;;4905234;29;20489;-83
2022/11/17 03:07:15;;;;;;;2.92;1.25;;;;;;;;;;4870292;29;20048;-83
2022/11/17 03:10:12;;;;;;;1.77;1.02;;;;;;;;;;4896297;29;20456;-83
2022/11/17 03:12:45;;;;;;;2.95;0.88;;;;;;;;;;4879555;29;20044;-83
2022/11/17 03:15:41;;;;;;;1.35;0.80;;;;;;;;;;4911162;29;20396;-83
2022/11/17 03:18:19;;;;;;;2.40;0.80;;;;;;;;;;4910745;29;20035;-83
2022/11/17 03:20:53;;;;;;;1.85;0.70;;;;;;;;;;4900941;29;20035;-83
2022/11/17 03:23:27;;;;;;;1.95;0.82;;;;;;;;;;4912342;29;20095;-83
2022/11/17 03:25:57;;;;;;;1.73;0.80;;;;;;;;;;4910783;29;20392;-83
2022/11/17 03:28:26;;;;;;;1.73;0.77;;;;;;;;;;4912312;29;20039;-83
2022/11/17 03:30:53;;;;;;;2.78;0.90;;;;;;;;;;4916693;29;20141;-83
2022/11/17 03:33:21;;;;;;;1.77;0.90;;;;;;;;;;4913104;29;20507;-83
2022/11/17 03:36:02;;;;;;;2.10;0.80;;;;;;;;;;4912393;29;20480;-83
2022/11/17 03:38:32;;;;;;;1.77;0.80;;;;;;;;;;4912593;29;20067;-82
2022/11/17 03:41:01;;;;;;;1.63;0.70;;;;;;;;;;4899827;29;20024;-83
2022/11/17 03:43:29;;;;;;;2.85;1.08;;;;;;;;;;4893280;29;20028;-83
2022/11/17 03:45:57;;;;;;;2.35;0.90;;;;;;;;;;4900397;29;20044;-83
2022/11/17 03:49:08;;;;;;;2.88;0.80;;;;;;;;;;4909480;29;20028;-83
2022/11/17 03:51:33;;;;;;;1.58;0.60;;;;;;;;;;4850858;29;20126;-84
2022/11/17 03:53:59;;;;;;;2.13;0.70;;;;;;;;;;4906712;29;20119;-83
2022/11/17 03:56:31;;;;;;;1.85;0.60;;;;;;;;;;4909765;29;20024;-83
2022/11/17 03:59:17;;;;;;;3.00;0.80;;;;;;;;;;4895393;29;20062;-83
2022/11/17 04:01:43;;;;;;;1.63;0.65;;;;;;;;;;4908838;29;20108;-83
2022/11/17 04:04:16;;;;;;;1.38;0.50;;;;;;;;;;4908865;29;20036;-83
2022/11/17 04:06:41;;;;;;;;;;;;;;;;;;4911376;29;20032;-83
2022/11/17 04:09:07;;;;;;;1.50;0.60;;;;;;;;;;4910954;29;19915;-83
2022/11/17 04:17:00;;;;;;;0.70;0.40;;;;;;;;;;4915660;29;20023;-84
2022/11/17 04:19:25;;;;;;;1.15;0.60;;;;;;;;;;4910534;29;20032;-83
2022/11/17 04:21:51;;;;;;;1.20;0.57;;;;;;;;;;4912672;29;20028;-84
2022/11/17 04:24:17;;;;;;;1.48;0.70;;;;;;;;;;4907167;29;20548;-83
2022/11/17 04:29:27;;;;;;;1.40;0.50;;;;;;;;;;4909282;29;20061;-84
2022/11/17 04:31:53;;;;;;;1.30;0.50;;;;;;;;;;4913952;29;20051;-83
2022/11/17 04:34:18;;;;;;;0.60;0.40;;;;;;;;;;4907180;29;20493;-84
2022/11/17 04:36:43;;;;;;;1.85;0.40;;;;;;;;;;4908619;29;20099;-83
2022/11/17 04:39:11;;;;;;;1.42;0.63;;;;;;;;;;4908073;29;20036;-83
2022/11/17 04:44:25;;;;;;;1.13;0.60;;;;;;;;;;4913698;29;20092;-84
2022/11/17 04:46:52;;;;;;;1.95;0.60;;;;;;;;;;4909226;29;20036;-84
2022/11/17 04:49:18;;;;;;;1.80;0.77;;;;;;;;;;4910126;29;20044;-83
2022/11/17 04:51:44;;;;;;;1.67;0.80;;;;;;;;;;4896567;29;20040;-84
2022/11/17 04:54:12;;;;;;;1.27;0.65;;;;;;;;;;4905167;29;20078;-83
2022/11/17 04:56:37;;;;;;;0.95;0.60;;;;;;;;;;4907589;29;20400;-84
2022/11/17 04:59:03;;;;;;;1.05;0.63;;;;;;;;;;4909621;29;20123;-83
2022/11/17 05:01:29;;;;;;;2.40;0.70;;;;;;;;;;4896448;29;20024;-83
2022/11/17 05:04:02;;;;;;;2.20;0.77;;;;;;;;;;4909975;29;20045;-83
2022/11/17 05:06:31;;;;;;;1.88;0.65;;;;;;;;;;4908251;29;20472;-83
2022/11/17 05:08:58;;;;;;;1.27;0.63;;;;;;;;;;4912338;29;20099;-84
2022/11/17 05:14:10;;;;;;;0.80;0.60;;;;;;;;;;4909540;29;20457;-83
2022/11/17 05:19:22;;;;;;;1.73;0.60;;;;;;;;;;4916805;29;20524;-83
2022/11/17 05:21:48;;;;;;;1.50;0.60;;;;;;;;;;4911001;29;20032;-83
2022/11/17 05:24:14;;;;;;;1.52;0.60;;;;;;;;;;4907804;29;20036;-83
2022/11/17 05:26:41;;;;;;;2.25;0.70;;;;;;;;;;4896014;29;20039;-83
2022/11/17 05:29:08;;;;;;;2.83;0.70;;;;;;;;;;4908728;29;20469;-82
2022/11/17 05:31:34;;;;;;;2.38;0.70;;;;;;;;;;4913396;29;20103;-82
2022/11/17 05:34:00;;;;;;;1.83;0.60;;;;;;;;;;4911150;29;20484;-82
2022/11/17 05:36:26;;;;;;;0.80;0.50;;;;;;;;;;4894937;29;20024;-82
2022/11/17 05:38:52;;;;;;;1.92;0.63;;;;;;;;;;4910918;29;20520;-83
2022/11/17 05:41:18;;;;;;;2.28;0.75;;;;;;;;;;4913350;29;20063;-83
2022/11/17 05:43:44;;;;;;;1.90;0.80;;;;;;;;;;4893405;29;20601;-83
2022/11/17 05:46:10;;;;;;;1.65;0.60;;;;;;;;;;4897903;29;20074;-83
2022/11/17 05:48:36;;;;;;;2.13;0.70;;;;;;;;;;4909811;29;20515;-83
2022/11/17 05:51:02;;;;;;;2.55;0.70;;;;;;;;;;4910572;29;20059;-83
2022/11/17 05:53:29;;;;;;;2.67;0.80;;;;;;;;;;4887558;29;20090;-83
2022/11/17 05:56:32;;;;;;;1.10;0.60;;;;;;;;;;4909476;29;20035;-84
2022/11/17 05:59:00;;;;;;;1.77;0.70;;;;;;;;;;4909920;29;20031;-83
2022/11/17 06:01:27;;;;;;;1.60;0.70;;;;;;;;;;4910218;29;20047;-83
2022/11/17 06:03:56;;;;;;;0.77;0.50;;;;;;;;;;4908864;29;20405;-83
2022/11/17 06:06:21;;;;;;;4.75;0.70;;;;;;;;;;4894327;29;20477;-83
2022/11/17 06:08:48;;;;;;;2.60;0.70;;;;;;;;;;4891235;29;20035;-83
2022/11/17 06:11:15;;;;;;;3.33;0.65;;;;;;;;;;4911715;29;20181;-83
2022/11/17 06:13:41;;;;;;;2.63;1.00;;;;;;;;;;4892213;29;20066;-84
2022/11/17 06:16:10;;;;;;;2.90;0.70;;;;;;;;;;4904105;29;20051;-84
2022/11/17 06:18:47;;;;;;;1.85;0.70;;;;;;;;;;4906595;29;20036;-83
2022/11/17 06:21:14;;;;;;;2.50;1.17;;;;;;;;;;4907133;29;20080;-83
2022/11/17 06:23:40;;;;;;;4.30;0.90;;;;;;;;;;4911081;29;20400;-83
2022/11/17 06:26:08;;;;;;;3.03;0.95;;;;;;;;;;4906216;29;20154;-83
2022/11/17 06:28:35;;;;;;;4.82;0.93;;;;;;;;;;4911142;29;20031;-84
2022/11/17 06:31:00;;;;;;;4.57;1.00;;;;;;;;;;4896766;29;20613;-83
2022/11/17 06:33:28;;;;;;;3.10;0.85;;;;;;;;;;4913414;29;20069;-83
2022/11/17 06:35:54;;;;;;;3.25;0.77;;;;;;;;;;4909192;29;20400;-83
2022/11/17 06:38:19;;;;;;;4.00;0.90;;;;;;;;;;4893397;29;20044;-83
2022/11/17 06:40:46;;;;;;;4.40;0.70;;;;;;;;;;4905994;29;20130;-83
2022/11/17 06:43:12;;;;;;;3.30;0.88;;;;;;;;;;4907301;29;20035;-83
2022/11/17 06:45:40;;;;;;;6.03;0.93;;;;;;;;;;4908182;29;20028;-83
2022/11/17 06:48:07;;;;;;;4.15;0.70;;;;;;;;;;4909012;29;20469;-83
2022/11/17 06:50:33;;;;;;;4.65;1.10;;;;;;;;;;4910850;29;20393;-82
2022/11/17 06:53:00;;;;;;;7.22;1.13;;;;;;;;;;4914794;29;20042;-83
2022/11/17 06:55:26;;;;;;;3.85;1.00;;;;;;;;;;4913431;29;20032;-83
2022/11/17 06:57:56;;;;;;;2.55;0.80;;;;;;;;;;4906528;29;20024;-84
2022/11/17 07:00:22;;;;;;;3.80;0.70;;;;;;;;;;4891077;29;20143;-83
2022/11/17 07:02:47;;;;;;;1.73;0.43;;;;;;;;;;4894325;29;20241;-82
2022/11/17 07:05:12;;;;;;;3.40;1.08;;;;;;;;;;4894237;29;20032;-83
2022/11/17 07:07:38;;;;;;;1.95;0.50;;;;;;;;;;4896310;29;20500;-84
2022/11/17 07:10:03;;;;;;;5.05;0.88;;;;;;;;;;4912978;29;20119;-83
2022/11/17 07:12:29;;;;;;;1.80;0.57;;;;;;;;;;4912243;29;20397;-83
2022/11/17 07:14:54;;;;;;;3.38;0.55;;;;;;;;;;4914664;29;20067;-83
2022/11/17 07:17:19;;;;;;;1.48;0.50;;;;;;;;;;4912369;29;20032;-83
2022/11/17 07:19:45;;;;;;;2.30;0.57;;;;;;;;;;4900838;29;20028;-83
2022/11/17 07:22:10;;;;;;;3.42;0.50;;;;;;;;;;4901277;29;20078;-82
2022/11/17 07:24:35;;;;;;;3.05;0.60;;;;;;;;;;4913523;29;20035;-83
2022/11/17 07:27:03;;;;;;;2.67;0.60;;;;;;;;;;4907712;29;20119;-84
2022/11/17 07:29:29;;;;;;;2.40;0.55;;;;;;;;;;4908617;29;20028;-83
2022/11/17 07:31:55;;;;;;;1.55;0.50;;;;;;;;;;4910674;29;20028;-84
2022/11/17 07:34:20;;;;;;;3.22;0.70;;;;;;;;;;4911479;29;21024;-83
2022/11/17 07:36:46;;;;;;;3.95;0.70;;;;;;;;;;4893803;29;20125;-83
2022/11/17 07:39:11;;;;;;;2.42;0.50;;;;;;;;;;4913695;29;20122;-83
2022/11/17 07:41:36;;;;;;;1.67;0.50;;;;;;;;;;4921327;29;20040;-82
2022/11/17 07:44:02;;;;;;;5.10;0.60;;;;;;;;;;4914706;29;20509;-84
2022/11/17 07:46:27;;;;;;;2.08;0.93;;;;;;;;;;4915034;29;20035;-83
2022/11/17 07:48:54;;;;;;;2.03;0.50;;;;;;;;;;4913238;29;20082;-84
2022/11/17 07:51:19;;;;;;;3.30;0.68;;;;;;;;;;4912837;29;20079;-84
2022/11/17 07:53:45;;;;;;;3.38;0.60;;;;;;;;;;4889102;29;20051;-84
2022/11/17 07:56:11;;;;;;;3.10;0.65;;;;;;;;;;4909195;29;20035;-84
2022/11/17 07:58:37;;;;;;;1.95;0.55;;;;;;;;;;4907038;29;20044;-84
2022/11/17 08:01:07;;;;;;;1.75;0.55;;;;;;;;;;4910172;29;20094;-84
2022/11/17 08:03:32;;;;;;;2.15;0.40;;;;;;;;;;4909940;29;20088;-84
2022/11/17 08:06:04;;;;;;;1.13;0.45;;;;;;;;;;4911551;29;20028;-84
2022/11/17 08:08:29;;;;;;;2.25;0.60;;;;;;;;;;4897097;29;20036;-83
2022/11/17 08:10:54;;;;;;;2.10;0.40;;;;;;;;;;4912197;29;20024;-82
2022/11/17 08:13:20;;;;;;;2.60;0.52;;;;;;;;;;4895465;29;20032;-84
2022/11/17 08:15:45;;;;;;;1.00;0.50;;;;;;;;;;4899424;29;20153;-84
2022/11/17 08:18:11;;;;;;;2.42;0.60;;;;;;;;;;4907021;29;20033;-84
2022/11/17 08:20:36;;;;;;;3.58;0.60;;;;;;;;;;4898176;29;20472;-83
2022/11/17 08:23:02;;;;;;;1.73;0.40;;;;;;;;;;4909201;29;20481;-84
2022/11/17 08:25:27;;;;;;;1.58;0.60;;;;;;;;;;4887874;29;20040;-84
2022/11/17 08:27:54;;;;;;;2.40;0.40;;;;;;;;;;4905645;29;20036;-84
2022/11/17 08:30:21;;;;;;;1.42;0.40;;;;;;;;;;4912247;29;20503;-83
2022/11/17 08:32:50;;;;;;;3.63;0.40;;;;;;;;;;4904164;29;20075;-83
2022/11/17 08:35:18;;;;;;;3.78;0.40;;;;;;;;;;4891320;29;20028;-83
2022/11/17 08:37:43;;;;;;;1.13;0.50;;;;;;;;;;4896998;29;20528;-83
2022/11/17 08:40:10;;;;;;;1.58;0.50;;;;;;;;;;4908025;29;20028;-84
2022/11/17 08:42:36;;;;;;;2.55;0.80;;;;;;;;;;4906641;29;20452;-83
2022/11/17 08:45:01;;;;;;;3.83;0.70;;;;;;;;;;4888164;29;20042;-83
2022/11/17 08:47:27;;;;;;;4.00;0.70;;;;;;;;;;4901551;29;20044;-84
2022/11/17 08:49:52;;;;;;;1.40;0.40;;;;;;;;;;4893534;29;20122;-84
2022/11/17 08:52:18;;;;;;;1.27;0.50;;;;;;;;;;4904504;29;20087;-84
2022/11/17 08:54:44;;;;;;;1.02;0.50;;;;;;;;;;4890020;29;20091;-83
2022/11/17 08:57:09;;;;;;;1.48;0.57;;;;;;;;;;4899854;29;20032;-83
2022/11/17 08:59:35;;;;;;;2.40;0.50;;;;;;;;;;4909262;29;20484;-83
2022/11/17 09:02:00;;;;;;;2.35;0.60;;;;;;;;;;4906259;29;20115;-83
2022/11/17 09:04:25;;;;;;;2.97;0.57;;;;;;;;;;4907299;29;20028;-83
2022/11/17 09:06:51;;;;;;;2.05;1.02;;;;;;;;;;4893300;29;20028;-82
2022/11/17 09:09:17;;;;;;;1.75;0.50;;;;;;;;;;4910427;29;20043;-83
2022/11/17 09:11:42;;;;;;;4.93;0.70;;;;;;;;;;4912075;29;20484;-83
2022/11/17 09:14:08;;;;;;;2.38;0.50;;;;;;;;;;4901835;29;20064;-83
2022/11/17 09:16:34;;;;;;;1.00;0.40;;;;;;;;;;4904648;29;20032;-82
2022/11/17 09:19:01;;;;;;;2.67;0.60;;;;;;;;;;4900322;29;20047;-84
2022/11/17 09:21:28;;;;;;;2.10;0.60;;;;;;;;;;4902082;29;20088;-83
2022/11/17 09:23:54;;;;;;;0.93;0.38;;;;;;;;;;4909107;29;20378;-83
2022/11/17 09:26:20;;;;;;;0.80;0.40;;;;;;;;;;4898903;29;20039;-84
2022/11/17 09:28:46;;;;;;;1.50;0.40;;;;;;;;;;4908051;29;20031;-83
2022/11/17 09:31:15;;;;;;;2.80;0.50;;;;;;;;;;4909158;29;20123;-83
2022/11/17 09:33:41;;;;;;;2.25;0.45;;;;;;;;;;4903928;29;20071;-83
2022/11/17 09:36:06;;;;;;;0.70;0.40;;;;;;;;;;4904199;29;20118;-84
2022/11/17 09:38:32;;;;;;;1.98;0.50;;;;;;;;;;4909588;29;20073;-84
2022/11/17 09:40:59;;;;;;;1.38;0.60;;;;;;;;;;4904397;29;20028;-84
2022/11/17 09:43:32;;;;;;;2.40;0.50;;;;;;;;;;4910255;29;20059;-84
2022/11/17 09:46:21;;;;;;;3.03;0.40;;;;;;;;;;4911079;29;20035;-84
2022/11/17 09:49:20;;;;;;;0.95;0.40;;;;;;;;;;4900755;29;20046;-83
2022/11/17 09:51:48;;;;;;;2.25;0.73;;;;;;;;;;4859159;29;20048;-83
2022/11/17 09:54:29;;;;;;;3.42;0.73;;;;;;;;;;4908274;29;20095;-83
2022/11/17 09:56:56;;;;;;;3.45;0.70;;;;;;;;;;4899872;29;20036;-83
2022/11/17 09:59:26;;;;;;;1.83;0.65;;;;;;;;;;4908254;29;20056;-83
2022/11/17 10:01:51;;;;;;;1.63;0.50;;;;;;;;;;4909395;29;20043;-83
2022/11/17 10:04:17;;;;;;;2.08;0.70;;;;;;;;;;4904813;29;20033;-83
2022/11/17 10:06:47;;;;;;;2.78;0.77;;;;;;;;;;4904117;29;20496;-82
2022/11/17 10:09:28;;;;;;;2.15;0.50;;;;;;;;;;4911698;29;20063;-82
2022/11/17 10:12:01;;;;;;;2.97;0.80;;;;;;;;;;4906375;29;20036;-82
2022/11/17 10:14:28;;;;;;;1.20;0.47;;;;;;;;;;4907689;29;20055;-83
2022/11/17 10:16:57;;;;;;;1.95;0.63;;;;;;;;;;4910053;29;20252;-82
2022/11/17 10:19:28;;;;;;;3.95;0.73;;;;;;;;;;4895810;29;20025;-82
2022/11/17 10:21:56;;;;;;;3.97;1.05;;;;;;;;;;4908410;29;20393;-83
2022/11/17 10:24:42;;;;;;;2.35;0.60;;;;;;;;;;4911345;29;20088;-82
2022/11/17 10:27:17;;;;;;;2.08;0.55;;;;;;;;;;4910519;29;20036;-82
2022/11/17 10:30:02;;;;;;;2.50;0.52;;;;;;;;;;4895807;29;20177;-82
2022/11/17 10:32:30;;;;;;;3.20;0.50;;;;;;;;;;4895100;29;20032;-82
2022/11/17 10:35:12;;;;;;;2.03;0.60;;;;;;;;;;4911899;29;20036;-83
2022/11/17 10:37:42;;;;;;;2.70;0.52;;;;;;;;;;4907065;29;20491;-82
2022/11/17 10:40:19;;;;;;;2.03;0.60;;;;;;;;;;4905632;29;20028;-82
2022/11/17 10:43:10;;;;;;;4.18;0.73;;;;;;;;;;4889451;29;20507;-82
2022/11/17 10:45:41;;;;;;;2.28;0.45;;;;;;;;;;4907377;29;20127;-82
2022/11/17 10:48:29;;;;;;;1.00;0.40;;;;;;;;;;4911103;29;20043;-82
2022/11/17 10:50:57;;;;;;;6.00;0.60;;;;;;;;;;4900250;29;20067;-82
2022/11/17 10:53:29;;;;;;;4.47;0.77;;;;;;;;;;4906496;29;20040;-82
2022/11/17 10:55:59;;;;;;;3.15;0.77;;;;;;;;;;4908318;29;20040;-82
2022/11/17 10:58:27;;;;;;;1.25;0.60;;;;;;;;;;4905266;29;20024;-82
2022/11/17 11:00:56;;;;;;;2.13;0.77;;;;;;;;;;4896580;29;20504;-82
2022/11/17 11:03:25;;;;;;;2.03;0.50;;;;;;;;;;4910740;29;20135;-82
2022/11/17 11:05:59;;;;;;;1.90;0.60;;;;;;;;;;4905102;29;20553;-82
2022/11/17 11:08:42;;;;;;;1.63;0.57;;;;;;;;;;4908790;29;20036;-82
2022/11/17 11:11:20;;;;;;;2.20;0.52;;;;;;;;;;4910333;29;20120;-83
2022/11/17 11:13:53;;;;;;;1.98;0.60;;;;;;;;;;4912376;29;20066;-82
2022/11/17 11:16:19;;;;;;;1.73;0.60;;;;;;;;;;4909500;29;20059;-82
2022/11/17 11:18:46;;;;;;;2.83;0.60;;;;;;;;;;4900702;29;20072;-82
2022/11/17 11:21:11;;;;;;;1.25;0.65;;;;;;;;;;4893558;29;20143;-83
2022/11/17 11:23:58;;;;;;;3.85;0.80;;;;;;;;;;4910267;29;20540;-82
2022/11/17 11:26:39;;;;;;;4.70;0.77;;;;;;;;;;4905684;29;20043;-82
2022/11/17 11:29:29;;;;;;;1.63;0.60;;;;;;;;;;4909832;29;20129;-82
2022/11/17 11:32:07;;;;;;;2.95;1.05;;;;;;;;;;4903841;29;20285;-82
2022/11/17 11:34:50;;;;;;;2.13;0.80;;;;;;;;;;4898329;29;20040;-83
2022/11/17 11:37:16;;;;;;;1.83;0.60;;;;;;;;;;4893284;29;20401;-83
2022/11/17 11:39:50;;;;;;;3.75;0.70;;;;;;;;;;4906977;29;20028;-82
2022/11/17 11:42:43;;;;;;;2.85;0.57;;;;;;;;;;4910903;29;20036;-82
2022/11/17 11:45:53;;;;;;;3.17;0.83;;;;;;;;;;4908348;29;20600;-82
2022/11/17 11:48:23;;;;;;;4.53;0.70;;;;;;;;;;4856952;29;20041;-82
2022/11/17 11:50:55;;;;;;;2.03;0.60;;;;;;;;;;4898600;29;20088;-82
2022/11/17 11:53:27;;;;;;;5.75;0.80;;;;;;;;;;4910210;29;20056;-82
2022/11/17 11:56:36;;;;;;;3.08;0.65;;;;;;;;;;4893310;29;20044;-82
2022/11/17 11:59:09;;;;;;;2.70;0.70;;;;;;;;;;4917043;29;20028;-82
2022/11/17 12:02:10;;;;;;;2.65;0.57;;;;;;;;;;4909262;29;20032;-82
2022/11/17 12:04:50;;;;;;;1.75;0.50;;;;;;;;;;4909526;29;20509;-81
2022/11/17 12:07:41;;;;;;;3.80;0.60;;;;;;;;;;4902039;29;20087;-82
2022/11/17 12:10:24;;;;;;;1.65;0.52;;;;;;;;;;4906560;29;20043;-82
2022/11/17 12:12:50;;;;;;;;;;;;;;;;;;4912686;29;20083;-82
2022/11/17 12:15:18;;;;;;;2.22;0.50;;;;;;;;;;4909471;29;19926;-82
2022/11/17 12:18:11;;;;;;;2.10;0.73;;;;;;;;;;4911564;29;20083;-83
2022/11/17 12:20:37;;;;;;;;;;;;;;;;;;4887157;29;20043;-81
2022/11/17 12:23:21;;;;;;;3.60;0.90;;;;;;;;;;4904983;29;20266;-82
2022/11/17 12:25:49;;;;;;;0.60;0.40;;;;;;;;;;4909871;29;20291;-82
2022/11/17 12:28:27;;;;;;;3.83;0.95;;;;;;;;;;4909888;29;20039;-82
2022/11/17 12:30:58;;;;;;;4.00;0.60;;;;;;;;;;4917065;29;20498;-82
2022/11/17 12:34:07;;;;;;;2.85;0.88;;;;;;;;;;4911549;29;20083;-81
2022/11/17 12:36:34;;;;;;;1.85;0.60;;;;;;;;;;4912470;29;20537;-81
2022/11/17 12:39:01;;;;;;;2.25;0.60;;;;;;;;;;4908649;29;20049;-82
2022/11/17 12:41:48;;;;;;;2.22;0.50;;;;;;;;;;4899459;29;20048;-83
2022/11/17 12:44:45;;;;;;;1.45;0.60;;;;;;;;;;4909230;29;20550;-82
2022/11/17 12:47:17;;;;;;;2.45;0.45;;;;;;;;;;4887435;29;20043;-81
2022/11/17 12:50:41;;;;;;;2.35;0.60;;;;;;;;;;4906427;29;21580;-81
2022/11/17 12:53:27;;;;;;;;;;;;;;;;;;4842694;29;20045;-81
2022/11/17 12:56:16;;;;;;;4.40;0.68;;;;;;;;;;4850893;29;19927;-82
2022/11/17 12:58:54;;;;;;;2.10;0.50;;;;;;;;;;4894731;29;20470;-82
2022/11/17 13:01:46;;;;;;;2.20;0.75;;;;;;;;;;4904697;29;20087;-83
2022/11/17 13:04:16;;;;;;;0.75;0.50;;;;;;;;;;4910019;29;20618;-82
2022/11/17 13:07:05;;;;;;;2.28;0.65;;;;;;;;;;4908429;29;20024;-82
2022/11/17 13:09:33;;;;;;;1.05;0.57;;;;;;;;;;4908128;29;20459;-82
2022/11/17 13:12:06;;;;;;;3.00;0.63;;;;;;;;;;4909108;29;20488;-82
2022/11/17 13:14:34;;;;;;;2.97;0.95;;;;;;;;;;4907221;29;20560;-82
2022/11/17 13:17:00;;;;;;;1.13;0.50;;;;;;;;;;4910102;29;20104;-82
2022/11/17 13:19:38;;;;;;;2.85;0.60;;;;;;;;;;4906123;29;20518;-82
2022/11/17 13:22:16;;;;;;;2.25;0.70;;;;;;;;;;4898783;29;20067;-82
2022/11/17 13:24:47;;;;;;;1.02;0.60;;;;;;;;;;4906277;29;20047;-82
2022/11/17 13:27:19;;;;;;;2.80;0.68;;;;;;;;;;4903356;29;20063;-82
2022/11/17 13:29:44;;;;;;;1.95;0.70;;;;;;;;;;4891441;29;20036;-82
2022/11/17 13:32:22;;;;;;;2.67;0.55;;;;;;;;;;4913511;29;20039;-82
2022/11/17 13:34:56;;;;;;;2.60;0.70;;;;;;;;;;4896965;29;20500;-82
2022/11/17 13:37:24;;;;;;;4.22;1.02;;;;;;;;;;4910711;29;20518;-82
2022/11/17 13:39:58;;;;;;;1.70;0.57;;;;;;;;;;4887378;29;20062;-82
2022/11/17 13:42:26;;;;;;;5.13;0.88;;;;;;;;;;4906682;29;20111;-82
2022/11/17 13:44:58;;;;;;;3.10;0.70;;;;;;;;;;4909095;29;20520;-82
2022/11/17 13:47:41;;;;;;;3.03;0.90;;;;;;;;;;4909652;29;20083;-82
2022/11/17 13:50:32;;;;;;;4.95;0.85;;;;;;;;;;4908064;29;20024;-82
2022/11/17 13:53:07;;;;;;;3.22;0.82;;;;;;;;;;4906159;29;20564;-82
2022/11/17 13:55:34;;;;;;;5.05;0.82;;;;;;;;;;4889890;29;20036;-82
2022/11/17 13:58:18;;;;;;;2.92;0.77;;;;;;;;;;4906463;29;20083;-82
2022/11/17 14:00:50;;;;;;;1.85;0.60;;;;;;;;;;4906610;29;20091;-82
2022/11/17 14:03:38;;;;;;;1.25;0.50;;;;;;;;;;4904918;29;20051;-82
2022/11/17 14:06:06;;;;;;;4.40;1.00;;;;;;;;;;4906454;29;20036;-82
2022/11/17 14:08:33;;;;;;;2.72;0.70;;;;;;;;;;4891624;29;20505;-83
2022/11/17 14:11:14;;;;;;;4.20;0.70;;;;;;;;;;4909240;29;20028;-82
2022/11/17 14:13:45;;;;;;;1.35;0.60;;;;;;;;;;4913113;29;20500;-83
2022/11/17 14:16:37;;;;;;;2.25;0.82;;;;;;;;;;4896471;29;20032;-82
2022/11/17 14:19:22;;;;;;;1.67;0.52;;;;;;;;;;4893092;29;20135;-82
2022/11/17 14:22:14;;;;;;;2.05;0.63;;;;;;;;;;4903943;29;20462;-82
2022/11/17 14:24:39;;;;;;;1.33;0.60;;;;;;;;;;4904667;29;20048;-83
2022/11/17 14:27:30;;;;;;;3.85;0.88;;;;;;;;;;4896390;29;20098;-83
2022/11/17 14:29:56;;;;;;;0.88;0.50;;;;;;;;;;4908520;29;20076;-83
2022/11/17 14:32:21;;;;;;;2.00;0.60;;;;;;;;;;4911060;29;20063;-83
2022/11/17 14:34:46;;;;;;;2.85;0.70;;;;;;;;;;4907970;29;20036;-83
2022/11/17 14:37:12;;;;;;;2.75;0.70;;;;;;;;;;4894250;29;20040;-83
2022/11/17 14:39:37;;;;;;;1.83;0.70;;;;;;;;;;4909982;29;20150;-83
2022/11/17 14:42:02;;;;;;;1.13;0.60;;;;;;;;;;4907462;29;20099;-83
2022/11/17 14:44:28;;;;;;;2.20;0.55;;;;;;;;;;4896083;29;20412;-83
2022/11/17 14:46:53;;;;;;;2.38;0.60;;;;;;;;;;4910525;29;20500;-83
2022/11/17 14:49:18;;;;;;;1.65;0.57;;;;;;;;;;4905817;29;20024;-83
2022/11/17 14:51:49;;;;;;;1.25;0.70;;;;;;;;;;4910143;29;20028;-83
2022/11/17 14:54:15;;;;;;;4.47;1.00;;;;;;;;;;4908171;29;20059;-83
2022/11/17 14:56:40;;;;;;;1.65;0.60;;;;;;;;;;4910182;29;20074;-83
2022/11/17 14:59:06;;;;;;;1.40;0.60;;;;;;;;;;4908802;29;20051;-83
2022/11/17 15:01:37;;;;;;;1.25;0.50;;;;;;;;;;4910461;29;20060;-83
2022/11/17 15:04:03;;;;;;;2.15;0.95;;;;;;;;;;4907724;29;20119;-83
2022/11/17 15:06:29;;;;;;;1.98;0.70;;;;;;;;;;4910072;29;20381;-83
2022/11/17 15:08:56;;;;;;;1.95;0.90;;;;;;;;;;4911395;29;20032;-83
2022/11/17 15:11:23;;;;;;;3.08;0.70;;;;;;;;;;4896345;29;20143;-83
2022/11/17 15:13:49;;;;;;;2.72;0.80;;;;;;;;;;4913821;29;20405;-82
2022/11/17 15:16:14;;;;;;;2.95;0.77;;;;;;;;;;4912396;29;20036;-84
2022/11/17 15:18:42;;;;;;;2.47;0.80;;;;;;;;;;4912710;29;20116;-83
2022/11/17 15:21:09;;;;;;;1.00;0.60;;;;;;;;;;4899806;29;20149;-83
2022/11/17 15:23:37;;;;;;;2.00;0.60;;;;;;;;;;4912630;29;20127;-83
2022/11/17 15:26:05;;;;;;;2.50;0.77;;;;;;;;;;4908022;29;20389;-83
2022/11/17 15:28:30;;;;;;;1.33;0.77;;;;;;;;;;4914814;29;20028;-83
2022/11/17 15:30:56;;;;;;;1.83;0.63;;;;;;;;;;4912719;29;20116;-84
2022/11/17 15:33:21;;;;;;;1.48;0.60;;;;;;;;;;4911687;29;20048;-85
2022/11/17 15:35:47;;;;;;;0.88;0.57;;;;;;;;;;4912243;29;20100;-85